sensor_id;sensor_type;location;lat;lon;timestamp;pressure;altitude;pressure_sealevel;temperature;humidity
58243;BME280;50118;53.232;8.252;2023-04-01T00:01:57;99199.66;;;8.69;100.00
58243;BME280;50118;53.232;8.252;2023-04-01T00:04:23;99195.03;;;8.63;100.00
58243;BME280;50118;53.232;8.252;2023-04-01T00:06:48;99200.66;;;8.59;100.00
58243;BME280;50118;53.232;8.252;2023-04-01T00:09:14;99196.00;;;8.70;100.00
58243;BME280;50118;53.232;8.252;2023-04-01T00:11:40;99201.66;;;8.67;100.00
58243;BME280;50118;53.232;8.252;2023-04-01T00:14:06;99205.66;;;8.63;100.00
58243;BME280;50118;53.232;8.252;2023-04-01T00:16:32;99191.72;;;8.60;100.00
58243;BME280;50118;53.232;8.252;2023-04-01T00:18:58;99187.78;;;8.56;100.00
58243;BME280;50118;53.232;8.252;2023-04-01T00:21:23;99200.66;;;8.59;100.00
58243;BME280;50118;53.232;8.252;2023-04-01T00:23:51;99190.69;;;8.70;100.00
58243;BME280;50118;53.232;8.252;2023-04-01T00:26:18;99194.34;;;8.69;100.00
58243;BME280;50118;53.232;8.252;2023-04-01T00:28:46;99197.84;;;8.61;100.00
58243;BME280;50118;53.232;8.252;2023-04-01T00:31:12;99199.53;;;8.62;100.00
58243;BME280;50118;53.232;8.252;2023-04-01T00:33:38;99194.06;;;8.55;100.00
58243;BME280;50118;53.232;8.252;2023-04-01T00:36:16;99194.53;;;8.59;100.00
58243;BME280;50118;53.232;8.252;2023-04-01T00:38:42;99199.19;;;8.65;100.00
58243;BME280;50118;53.232;8.252;2023-04-01T00:41:09;99197.19;;;8.67;100.00
58243;BME280;50118;53.232;8.252;2023-04-01T00:43:39;99200.34;;;8.63;100.00
58243;BME280;50118;53.232;8.252;2023-04-01T00:46:05;99198.06;;;8.51;100.00
58243;BME280;50118;53.232;8.252;2023-04-01T00:48:33;99194.38;;;8.60;100.00
58243;BME280;50118;53.232;8.252;2023-04-01T00:53:30;99201.03;;;8.56;100.00
58243;BME280;50118;53.232;8.252;2023-04-01T00:58:27;99202.16;;;8.62;100.00
58243;BME280;50118;53.232;8.252;2023-04-01T01:00:56;99201.66;;;8.67;100.00
58243;BME280;50118;53.232;8.252;2023-04-01T01:03:22;99194.06;;;8.55;100.00
58243;BME280;50118;53.232;8.252;2023-04-01T01:08:51;99194.22;;;8.62;100.00
58243;BME280;50118;53.232;8.252;2023-04-01T01:11:19;99199.03;;;8.58;100.00
58243;BME280;50118;53.232;8.252;2023-04-01T01:16:27;99202.34;;;8.60;100.00
58243;BME280;50118;53.232;8.252;2023-04-01T01:24:40;99188.09;;;8.62;100.00
58243;BME280;50118;53.232;8.252;2023-04-01T01:27:11;99196.38;;;8.67;100.00
58243;BME280;50118;53.232;8.252;2023-04-01T01:32:44;99197.66;;;8.71;100.00
58243;BME280;50118;53.232;8.252;2023-04-01T01:37:58;99196.03;;;8.62;100.00
58243;BME280;50118;53.232;8.252;2023-04-01T01:40:26;99198.69;;;8.62;100.00
58243;BME280;50118;53.232;8.252;2023-04-01T01:42:55;99201.34;;;8.62;100.00
58243;BME280;50118;53.232;8.252;2023-04-01T01:45:23;99193.38;;;8.62;100.00
58243;BME280;50118;53.232;8.252;2023-04-01T01:47:50;99196.69;;;8.64;100.00
58243;BME280;50118;53.232;8.252;2023-04-01T01:50:16;99196.69;;;8.64;100.00
58243;BME280;50118;53.232;8.252;2023-04-01T01:52:42;99196.69;;;8.64;100.00
58243;BME280;50118;53.232;8.252;2023-04-01T01:55:31;99194.69;;;8.66;100.00
58243;BME280;50118;53.232;8.252;2023-04-01T01:58:00;99191.72;;;8.69;100.00
58243;BME280;50118;53.232;8.252;2023-04-01T02:00:27;99195.81;;;8.79;100.00
58243;BME280;50118;53.232;8.252;2023-04-01T02:02:56;99205.28;;;8.82;100.00
58243;BME280;50118;53.232;8.252;2023-04-01T02:05:25;99205.59;;;8.79;100.00
58243;BME280;50118;53.232;8.252;2023-04-01T02:08:00;99205.13;;;8.75;100.00
58243;BME280;50118;53.232;8.252;2023-04-01T02:10:28;99205.78;;;8.69;100.00
58243;BME280;50118;53.232;8.252;2023-04-01T02:12:58;99204.97;;;8.69;100.00
58243;BME280;50118;53.232;8.252;2023-04-01T02:15:27;99200.66;;;8.68;100.00
58243;BME280;50118;53.232;8.252;2023-04-01T02:17:55;99209.94;;;8.72;100.00
58243;BME280;50118;53.232;8.252;2023-04-01T02:20:23;99208.94;;;8.65;100.00
58243;BME280;50118;53.232;8.252;2023-04-01T02:22:51;99215.25;;;8.72;100.00
58243;BME280;50118;53.232;8.252;2023-04-01T02:25:30;99210.91;;;8.79;100.00
58243;BME280;50118;53.232;8.252;2023-04-01T02:27:59;99212.25;;;8.75;100.00
58243;BME280;50118;53.232;8.252;2023-04-01T02:30:27;99211.59;;;8.73;100.00
58243;BME280;50118;53.232;8.252;2023-04-01T02:32:55;99214.56;;;8.78;100.00
58243;BME280;50118;53.232;8.252;2023-04-01T02:35:22;99213.28;;;8.66;100.00
58243;BME280;50118;53.232;8.252;2023-04-01T02:37:49;99218.22;;;8.77;100.00
58243;BME280;50118;53.232;8.252;2023-04-01T02:40:16;99211.94;;;8.70;100.00
58243;BME280;50118;53.232;8.252;2023-04-01T02:42:42;99221.53;;;8.79;100.00
58243;BME280;50118;53.232;8.252;2023-04-01T02:45:08;99221.53;;;8.79;100.00
58243;BME280;50118;53.232;8.252;2023-04-01T02:47:33;99225.38;;;8.68;100.00
58243;BME280;50118;53.232;8.252;2023-04-01T02:49:59;99219.25;;;8.68;100.00
58243;BME280;50118;53.232;8.252;2023-04-01T02:52:25;99228.38;;;8.65;100.00
58243;BME280;50118;53.232;8.252;2023-04-01T02:54:51;99229.84;;;8.68;100.00
58243;BME280;50118;53.232;8.252;2023-04-01T02:57:17;99223.56;;;8.69;100.00
58243;BME280;50118;53.232;8.252;2023-04-01T02:59:43;99231.53;;;8.69;100.00
58243;BME280;50118;53.232;8.252;2023-04-01T03:02:08;99230.19;;;8.65;100.00
58243;BME280;50118;53.232;8.252;2023-04-01T03:04:34;99235.16;;;8.68;100.00
58243;BME280;50118;53.232;8.252;2023-04-01T03:06:59;99238.31;;;8.63;100.00
58243;BME280;50118;53.232;8.252;2023-04-01T03:09:24;99229.84;;;8.68;100.00
58243;BME280;50118;53.232;8.252;2023-04-01T03:11:50;99237.16;;;8.66;100.00
58243;BME280;50118;53.232;8.252;2023-04-01T03:14:15;99237.50;;;8.63;100.00
58243;BME280;50118;53.232;8.252;2023-04-01T03:16:41;99234.19;;;8.60;100.00
58243;BME280;50118;53.232;8.252;2023-04-01T03:19:06;99246.47;;;8.62;100.00
58243;BME280;50118;53.232;8.252;2023-04-01T03:21:31;99240.84;;;8.56;100.00
58243;BME280;50118;53.232;8.252;2023-04-01T03:23:57;99247.78;;;8.66;100.00
58243;BME280;50118;53.232;8.252;2023-04-01T03:26:24;99248.44;;;8.59;100.00
58243;BME280;50118;53.232;8.252;2023-04-01T03:28:49;99246.50;;;8.45;100.00
58243;BME280;50118;53.232;8.252;2023-04-01T03:31:15;99247.31;;;8.46;100.00
58243;BME280;50118;53.232;8.252;2023-04-01T03:33:41;99239.84;;;8.49;100.00
58243;BME280;50118;53.232;8.252;2023-04-01T03:36:07;99250.44;;;8.57;100.00
58243;BME280;50118;53.232;8.252;2023-04-01T03:38:34;99256.44;;;8.51;100.00
58243;BME280;50118;53.232;8.252;2023-04-01T03:41:01;99249.81;;;8.47;100.00
58243;BME280;50118;53.232;8.252;2023-04-01T03:43:26;99255.09;;;8.47;100.00
58243;BME280;50118;53.232;8.252;2023-04-01T03:45:52;99254.28;;;8.47;100.00
58243;BME280;50118;53.232;8.252;2023-04-01T03:48:20;99258.41;;;8.49;100.00
58243;BME280;50118;53.232;8.252;2023-04-01T03:50:46;99258.75;;;8.46;100.00
58243;BME280;50118;53.232;8.252;2023-04-01T03:53:11;99262.41;;;8.45;100.00
58243;BME280;50118;53.232;8.252;2023-04-01T03:55:37;99257.28;;;8.44;100.00
58243;BME280;50118;53.232;8.252;2023-04-01T03:58:06;99266.06;;;8.44;100.00
58243;BME280;50118;53.232;8.252;2023-04-01T04:00:32;99259.28;;;8.50;100.00
58243;BME280;50118;53.232;8.252;2023-04-01T04:02:58;99261.03;;;8.41;100.00
58243;BME280;50118;53.232;8.252;2023-04-01T04:05:24;99271.03;;;8.47;100.00
58243;BME280;50118;53.232;8.252;2023-04-01T04:07:51;99271.34;;;8.44;100.00
58243;BME280;50118;53.232;8.252;2023-04-01T04:10:17;99270.34;;;8.37;100.00
58243;BME280;50118;53.232;8.252;2023-04-01T04:12:42;99267.41;;;8.48;100.00
58243;BME280;50118;53.232;8.252;2023-04-01T04:15:08;99273.03;;;8.45;100.00
58243;BME280;50118;53.232;8.252;2023-04-01T04:17:34;99275.97;;;8.42;100.00
58243;BME280;50118;53.232;8.252;2023-04-01T04:20:00;99279.66;;;8.49;100.00
58243;BME280;50118;53.232;8.252;2023-04-01T04:22:26;99275.97;;;8.42;100.00
58243;BME280;50118;53.232;8.252;2023-04-01T04:24:51;99280.63;;;8.40;100.00
58243;BME280;50118;53.232;8.252;2023-04-01T04:27:17;99281.28;;;8.42;100.00
58243;BME280;50118;53.232;8.252;2023-04-01T04:29:42;99283.94;;;8.42;100.00
58243;BME280;50118;53.232;8.252;2023-04-01T04:32:08;99283.94;;;8.42;100.00
58243;BME280;50118;53.232;8.252;2023-04-01T04:34:33;99287.28;;;8.44;100.00
58243;BME280;50118;53.232;8.252;2023-04-01T04:36:59;99288.25;;;8.35;100.00
58243;BME280;50118;53.232;8.252;2023-04-01T04:39:24;99290.09;;;8.34;100.00
58243;BME280;50118;53.232;8.252;2023-04-01T04:41:49;99295.03;;;8.37;100.00
58243;BME280;50118;53.232;8.252;2023-04-01T04:44:15;99302.50;;;8.34;100.00
58243;BME280;50118;53.232;8.252;2023-04-01T04:46:40;99299.53;;;8.37;100.00
58243;BME280;50118;53.232;8.252;2023-04-01T04:49:06;99311.47;;;8.41;100.00
58243;BME280;50118;53.232;8.252;2023-04-01T04:51:32;99310.47;;;8.42;100.00
58243;BME280;50118;53.232;8.252;2023-04-01T04:54:04;99307.81;;;8.34;100.00
58243;BME280;50118;53.232;8.252;2023-04-01T04:56:30;99312.13;;;8.27;100.00
58243;BME280;50118;53.232;8.252;2023-04-01T04:58:56;99320.25;;;8.25;100.00
58243;BME280;50118;53.232;8.252;2023-04-01T05:01:22;99326.72;;;8.22;100.00
58243;BME280;50118;53.232;8.252;2023-04-01T05:03:47;99316.13;;;8.22;100.00
58243;BME280;50118;53.232;8.252;2023-04-01T05:06:14;99326.06;;;8.29;100.00
58243;BME280;50118;53.232;8.252;2023-04-01T05:08:42;99333.34;;;8.27;100.00
58243;BME280;50118;53.232;8.252;2023-04-01T05:11:14;99329.19;;;8.32;100.00
58243;BME280;50118;53.232;8.252;2023-04-01T05:13:41;99327.41;;;8.33;100.00
58243;BME280;50118;53.232;8.252;2023-04-01T05:16:11;99330.38;;;8.30;100.00
58243;BME280;50118;53.232;8.252;2023-04-01T05:18:36;99332.34;;;8.36;100.00
58243;BME280;50118;53.232;8.252;2023-04-01T05:21:02;99337.16;;;8.32;100.00
58243;BME280;50118;53.232;8.252;2023-04-01T05:23:28;99339.31;;;8.29;100.00
58243;BME280;50118;53.232;8.252;2023-04-01T05:25:53;99338.97;;;8.23;100.00
58243;BME280;50118;53.232;8.252;2023-04-01T05:28:19;99339.00;;;8.32;100.00
58243;BME280;50118;53.232;8.252;2023-04-01T05:30:45;99348.63;;;8.33;100.00
58243;BME280;50118;53.232;8.252;2023-04-01T05:33:12;99347.78;;;8.32;100.00
58243;BME280;50118;53.232;8.252;2023-04-01T05:35:38;99346.94;;;8.32;100.00
58243;BME280;50118;53.232;8.252;2023-04-01T05:38:04;99349.28;;;8.27;100.00
58243;BME280;50118;53.232;8.252;2023-04-01T05:40:30;99346.78;;;8.25;100.00
58243;BME280;50118;53.232;8.252;2023-04-01T05:42:56;99353.94;;;8.33;100.00
58243;BME280;50118;53.232;8.252;2023-04-01T05:45:22;99359.41;;;8.31;100.00
58243;BME280;50118;53.232;8.252;2023-04-01T05:47:48;99350.59;;;8.31;100.00
58243;BME280;50118;53.232;8.252;2023-04-01T05:50:13;99358.94;;;8.44;100.00
58243;BME280;50118;53.232;8.252;2023-04-01T05:52:39;99358.25;;;8.42;100.00
58243;BME280;50118;53.232;8.252;2023-04-01T05:55:05;99349.63;;;8.40;100.00
58243;BME280;50118;53.232;8.252;2023-04-01T05:57:31;99370.34;;;8.36;100.00
58243;BME280;50118;53.232;8.252;2023-04-01T05:59:56;99369.50;;;8.36;100.00
58243;BME280;50118;53.232;8.252;2023-04-01T06:02:21;99370.34;;;8.36;100.00
58243;BME280;50118;53.232;8.252;2023-04-01T06:04:47;99369.69;;;8.43;100.00
58243;BME280;50118;53.232;8.252;2023-04-01T06:07:17;99372.19;;;8.44;100.00
58243;BME280;50118;53.232;8.252;2023-04-01T06:09:43;99377.50;;;8.44;100.00
58243;BME280;50118;53.232;8.252;2023-04-01T06:12:32;99377.78;;;8.41;100.00
58243;BME280;50118;53.232;8.252;2023-04-01T06:15:24;99390.97;;;8.59;100.00
58243;BME280;50118;53.232;8.252;2023-04-01T06:20:51;99393.44;;;8.60;100.00
58243;BME280;50118;53.232;8.252;2023-04-01T06:26:11;99399.75;;;8.68;100.00
58243;BME280;50118;53.232;8.252;2023-04-01T06:31:28;99392.78;;;8.75;100.00
58243;BME280;50118;53.232;8.252;2023-04-01T06:34:08;99409.19;;;8.95;100.00
58243;BME280;50118;53.232;8.252;2023-04-01T06:36:42;99400.09;;;8.81;100.00
58243;BME280;50118;53.232;8.252;2023-04-01T06:42:25;99417.53;;;8.75;100.00
58243;BME280;50118;53.232;8.252;2023-04-01T06:53:39;99433.25;;;8.85;100.00
58243;BME280;50118;53.232;8.252;2023-04-01T06:56:10;99424.31;;;8.94;100.00
58243;BME280;50118;53.232;8.252;2023-04-01T06:58:54;99431.47;;;8.94;100.00
58243;BME280;50118;53.232;8.252;2023-04-01T07:01:42;99442.91;;;8.94;100.00
58243;BME280;50118;53.232;8.252;2023-04-01T07:04:18;99430.13;;;9.06;100.00
58243;BME280;50118;53.232;8.252;2023-04-01T07:06:51;99424.28;;;9.19;100.00
58243;BME280;50118;53.232;8.252;2023-04-01T07:09:22;99432.94;;;9.13;100.00
58243;BME280;50118;53.232;8.252;2023-04-01T07:11:50;99434.91;;;9.19;100.00
58243;BME280;50118;53.232;8.252;2023-04-01T07:14:28;99448.00;;;9.37;100.00
58243;BME280;50118;53.232;8.252;2023-04-01T07:17:15;99451.16;;;9.41;100.00
58243;BME280;50118;53.232;8.252;2023-04-01T07:19:45;99458.09;;;9.50;100.00
58243;BME280;50118;53.232;8.252;2023-04-01T07:24:43;99461.78;;;9.32;100.00
58243;BME280;50118;53.232;8.252;2023-04-01T07:27:12;99460.47;;;9.28;100.00
58243;BME280;50118;53.232;8.252;2023-04-01T07:29:38;99469.59;;;9.34;100.00
58243;BME280;50118;53.232;8.252;2023-04-01T07:37:58;99478.38;;;9.43;100.00
58243;BME280;50118;53.232;8.252;2023-04-01T07:49:10;99482.72;;;9.35;100.00
58243;BME280;50118;53.232;8.252;2023-04-01T07:51:56;99495.69;;;9.47;100.00
58243;BME280;50118;53.232;8.252;2023-04-01T07:57:11;99487.88;;;9.45;100.00
58243;BME280;50118;53.232;8.252;2023-04-01T08:05:25;99507.28;;;9.62;100.00
58243;BME280;50118;53.232;8.252;2023-04-01T08:10:36;99515.78;;;10.05;100.00
58243;BME280;50118;53.232;8.252;2023-04-01T08:13:21;99516.72;;;10.29;100.00
58243;BME280;50118;53.232;8.252;2023-04-01T08:16:02;99525.69;;;10.36;100.00
58243;BME280;50118;53.232;8.252;2023-04-01T08:21:21;99526.88;;;10.25;100.00
58243;BME280;50118;53.232;8.252;2023-04-01T08:23:52;99532.88;;;10.19;100.00
58243;BME280;50118;53.232;8.252;2023-04-01T08:26:35;99536.63;;;10.41;100.00
58243;BME280;50118;53.232;8.252;2023-04-01T08:29:12;99540.94;;;10.51;100.00
58243;BME280;50118;53.232;8.252;2023-04-01T08:34:33;99552.53;;;10.58;100.00
58243;BME280;50118;53.232;8.252;2023-04-01T08:37:06;99556.91;;;10.51;100.00
58243;BME280;50118;53.232;8.252;2023-04-01T08:39:43;99555.69;;;10.14;100.00
58243;BME280;50118;53.232;8.252;2023-04-01T08:45:40;99565.53;;;10.05;100.00
58243;BME280;50118;53.232;8.252;2023-04-01T08:56:48;99581.03;;;9.11;100.00
58243;BME280;50118;53.232;8.252;2023-04-01T09:22:17;99620.28;;;8.14;100.00
58243;BME280;50118;53.232;8.252;2023-04-01T09:25:06;99631.16;;;8.02;100.00
58243;BME280;50118;53.232;8.252;2023-04-01T09:36:46;99651.19;;;7.97;100.00
58243;BME280;50118;53.232;8.252;2023-04-01T09:39:42;99646.56;;;7.99;100.00
58243;BME280;50118;53.232;8.252;2023-04-01T09:42:23;99656.38;;;7.80;100.00
58243;BME280;50118;53.232;8.252;2023-04-01T09:45:00;99658.56;;;7.85;100.00
58243;BME280;50118;53.232;8.252;2023-04-01T09:47:56;99673.91;;;7.99;100.00
58243;BME280;50118;53.232;8.252;2023-04-01T09:51:03;99671.41;;;7.98;100.00
58243;BME280;50118;53.232;8.252;2023-04-01T09:56:27;99682.44;;;7.85;100.00
58243;BME280;50118;53.232;8.252;2023-04-01T09:59:21;99683.44;;;8.10;100.00
58243;BME280;50118;53.232;8.252;2023-04-01T10:11:14;99702.72;;;7.94;100.00
58243;BME280;50118;53.232;8.252;2023-04-01T10:24:51;99723.41;;;7.73;100.00
58243;BME280;50118;53.232;8.252;2023-04-01T10:33:25;99739.53;;;7.79;100.00
58243;BME280;50118;53.232;8.252;2023-04-01T10:41:49;99761.31;;;7.37;100.00
58243;BME280;50118;53.232;8.252;2023-04-01T10:56:13;99781.31;;;7.50;100.00
58243;BME280;50118;53.232;8.252;2023-04-01T11:16:11;99810.22;;;7.15;100.00
58243;BME280;50118;53.232;8.252;2023-04-01T11:41:34;99858.47;;;6.99;100.00
58243;BME280;50118;53.232;8.252;2023-04-01T11:52:55;99881.63;;;6.97;100.00
58243;BME280;50118;53.232;8.252;2023-04-01T11:58:18;99894.59;;;7.00;100.00
58243;BME280;50118;53.232;8.252;2023-04-01T12:03:43;99899.59;;;7.03;100.00
58243;BME280;50118;53.232;8.252;2023-04-01T12:12:30;99909.91;;;6.97;100.00
58243;BME280;50118;53.232;8.252;2023-04-01T12:26:10;99927.31;;;7.19;100.00
58243;BME280;50118;53.232;8.252;2023-04-01T12:29:11;99934.22;;;7.29;100.00
58243;BME280;50118;53.232;8.252;2023-04-01T12:31:56;99942.59;;;7.25;100.00
58243;BME280;50118;53.232;8.252;2023-04-01T12:37:17;99939.00;;;7.06;100.00
58243;BME280;50118;53.232;8.252;2023-04-01T12:39:56;99958.53;;;6.86;100.00
58243;BME280;50118;53.232;8.252;2023-04-01T12:55:59;99980.59;;;6.86;100.00
58243;BME280;50118;53.232;8.252;2023-04-01T12:59:00;99995.91;;;7.02;100.00
58243;BME280;50118;53.232;8.252;2023-04-01T13:15:37;100004.22;;;7.27;100.00
58243;BME280;50118;53.232;8.252;2023-04-01T13:25:00;100029.34;;;6.84;100.00
58243;BME280;50118;53.232;8.252;2023-04-01T13:27:38;100031.28;;;7.11;100.00
58243;BME280;50118;53.232;8.252;2023-04-01T13:33:32;100054.00;;;7.04;100.00
58243;BME280;50118;53.232;8.252;2023-04-01T13:36:07;100041.88;;;7.31;100.00
58243;BME280;50118;53.232;8.252;2023-04-01T13:41:39;100066.97;;;7.46;100.00
58243;BME280;50118;53.232;8.252;2023-04-01T13:44:17;100054.97;;;7.13;100.00
58243;BME280;50118;53.232;8.252;2023-04-01T13:47:24;100064.75;;;7.12;100.00
58243;BME280;50118;53.232;8.252;2023-04-01T13:50:16;100067.81;;;7.07;100.00
58243;BME280;50118;53.232;8.252;2023-04-01T14:03:52;100098.41;;;6.61;100.00
58243;BME280;50118;53.232;8.252;2023-04-01T14:12:04;100102.06;;;6.80;100.00
58243;BME280;50118;53.232;8.252;2023-04-01T14:33:43;100152.84;;;6.23;100.00
58243;BME280;50118;53.232;8.252;2023-04-01T14:39:47;100167.03;;;6.22;100.00
58243;BME280;50118;53.232;8.252;2023-04-01T14:45:06;100176.22;;;6.18;100.00
58243;BME280;50118;53.232;8.252;2023-04-01T14:47:59;100171.03;;;6.16;100.00
58243;BME280;50118;53.232;8.252;2023-04-01T14:50:40;100180.81;;;6.26;100.00
58243;BME280;50118;53.232;8.252;2023-04-01T15:05:49;100206.09;;;5.97;100.00
58243;BME280;50118;53.232;8.252;2023-04-01T15:10:58;100218.94;;;6.02;100.00
58243;BME280;50118;53.232;8.252;2023-04-01T15:13:48;100223.41;;;6.02;100.00
58243;BME280;50118;53.232;8.252;2023-04-01T15:16:31;100222.50;;;5.80;100.00
58243;BME280;50118;53.232;8.252;2023-04-01T15:19:37;100238.31;;;5.91;100.00
58243;BME280;50118;53.232;8.252;2023-04-01T15:22:08;100251.09;;;5.86;100.00
58243;BME280;50118;53.232;8.252;2023-04-01T15:36:00;100272.56;;;5.60;100.00
58243;BME280;50118;53.232;8.252;2023-04-01T15:38:38;100282.50;;;5.68;100.00
58243;BME280;50118;53.232;8.252;2023-04-01T15:43:43;100286.72;;;5.59;100.00
58243;BME280;50118;53.232;8.252;2023-04-01T15:48:57;100293.94;;;5.69;100.00
58243;BME280;50118;53.232;8.252;2023-04-01T15:54:25;100308.69;;;5.60;100.00
58243;BME280;50118;53.232;8.252;2023-04-01T16:00:02;100315.59;;;5.40;100.00
58243;BME280;50118;53.232;8.252;2023-04-01T16:05:54;100334.31;;;5.37;100.00
58243;BME280;50118;53.232;8.252;2023-04-01T16:08:31;100342.00;;;5.29;100.00
58243;BME280;50118;53.232;8.252;2023-04-01T16:11:15;100342.50;;;5.45;100.00
58243;BME280;50118;53.232;8.252;2023-04-01T16:13:59;100355.22;;;5.40;100.00
58243;BME280;50118;53.232;8.252;2023-04-01T16:22:22;100366.03;;;5.37;100.00
58243;BME280;50118;53.232;8.252;2023-04-01T16:27:27;100381.03;;;5.25;100.00
58243;BME280;50118;53.232;8.252;2023-04-01T16:30:26;100391.44;;;5.15;100.00
58243;BME280;50118;53.232;8.252;2023-04-01T16:33:03;100383.53;;;5.15;100.00
58243;BME280;50118;53.232;8.252;2023-04-01T16:35:53;100397.09;;;5.22;100.00
58243;BME280;50118;53.232;8.252;2023-04-01T16:41:09;100403.44;;;5.08;100.00
58243;BME280;50118;53.232;8.252;2023-04-01T16:43:49;100399.38;;;5.15;100.00
58243;BME280;50118;53.232;8.252;2023-04-01T16:46:39;100416.66;;;5.31;100.00
58243;BME280;50118;53.232;8.252;2023-04-01T16:54:39;100434.03;;;5.11;100.00
58243;BME280;50118;53.232;8.252;2023-04-01T16:58:10;100446.06;;;5.15;100.00
58243;BME280;50118;53.232;8.252;2023-04-01T17:00:26;100446.44;;;5.21;100.00
58243;BME280;50118;53.232;8.252;2023-04-01T17:03:04;100469.72;;;5.16;100.00
58243;BME280;50118;53.232;8.252;2023-04-01T17:05:50;100462.75;;;5.04;100.00
58243;BME280;50118;53.232;8.252;2023-04-01T17:11:22;100477.81;;;4.91;100.00
58243;BME280;50118;53.232;8.252;2023-04-01T17:14:28;100481.66;;;4.98;100.00
58243;BME280;50118;53.232;8.252;2023-04-01T17:28:57;100513.00;;;4.78;100.00
58243;BME280;50118;53.232;8.252;2023-04-01T17:34:25;100534.28;;;4.88;100.00
58243;BME280;50118;53.232;8.252;2023-04-01T17:39:57;100540.47;;;4.76;100.00
58243;BME280;50118;53.232;8.252;2023-04-01T17:52:45;100575.34;;;4.68;100.00
58243;BME280;50118;53.232;8.252;2023-04-01T18:00:50;100590.59;;;4.52;100.00
58243;BME280;50118;53.232;8.252;2023-04-01T18:06:39;100604.31;;;4.57;100.00
58243;BME280;50118;53.232;8.252;2023-04-01T18:09:36;100619.09;;;4.46;100.00
58243;BME280;50118;53.232;8.252;2023-04-01T18:12:11;100624.44;;;4.58;100.00
58243;BME280;50118;53.232;8.252;2023-04-01T18:20:25;100648.63;;;4.39;100.00
58243;BME280;50118;53.232;8.252;2023-04-01T18:23:00;100654.53;;;4.42;100.00
58243;BME280;50118;53.232;8.252;2023-04-01T18:25:41;100659.59;;;4.45;100.00
58243;BME280;50118;53.232;8.252;2023-04-01T18:36:19;100682.81;;;4.40;100.00
58243;BME280;50118;53.232;8.252;2023-04-01T18:38:54;100692.31;;;4.30;100.00
58243;BME280;50118;53.232;8.252;2023-04-01T18:41:32;100697.63;;;4.17;100.00
58243;BME280;50118;53.232;8.252;2023-04-01T18:44:30;100719.09;;;4.24;100.00
58243;BME280;50118;53.232;8.252;2023-04-01T18:47:23;100718.16;;;4.25;100.00
58243;BME280;50118;53.232;8.252;2023-04-01T18:50:11;100721.09;;;4.20;100.00
58243;BME280;50118;53.232;8.252;2023-04-01T18:52:45;100739.56;;;4.20;100.00
58243;BME280;50118;53.232;8.252;2023-04-01T18:55:29;100731.34;;;4.25;100.00
58243;BME280;50118;53.232;8.252;2023-04-01T18:58:22;100739.06;;;4.28;100.00
58243;BME280;50118;53.232;8.252;2023-04-01T19:01:06;100745.69;;;4.21;100.00
58243;BME280;50118;53.232;8.252;2023-04-01T19:09:23;100764.13;;;4.08;100.00
58243;BME280;50118;53.232;8.252;2023-04-01T19:12:35;100767.41;;;4.11;100.00
58243;BME280;50118;53.232;8.252;2023-04-01T19:14:58;100771.09;;;4.09;100.00
58243;BME280;50118;53.232;8.252;2023-04-01T19:17:45;100779.00;;;4.09;100.00
58243;BME280;50118;53.232;8.252;2023-04-01T19:25:57;100806.59;;;4.03;100.00
58243;BME280;50118;53.232;8.252;2023-04-01T19:29:06;100807.56;;;4.02;100.00
58243;BME280;50118;53.232;8.252;2023-04-01T19:31:45;100817.78;;;4.07;100.00
58243;BME280;50118;53.232;8.252;2023-04-01T19:39:54;100839.75;;;4.07;100.00
58243;BME280;50118;53.232;8.252;2023-04-01T19:53:36;100860.28;;;4.02;100.00
58243;BME280;50118;53.232;8.252;2023-04-01T19:58:48;100867.53;;;3.99;100.00
58243;BME280;50118;53.232;8.252;2023-04-01T20:01:24;100883.09;;;3.89;100.00
58243;BME280;50118;53.232;8.252;2023-04-01T20:03:58;100869.00;;;3.90;100.00
58243;BME280;50118;53.232;8.252;2023-04-01T20:06:37;100888.94;;;3.80;100.00
58243;BME280;50118;53.232;8.252;2023-04-01T20:09:14;100893.63;;;3.89;100.00
58243;BME280;50118;53.232;8.252;2023-04-01T20:14:42;100908.16;;;3.82;100.00
58243;BME280;50118;53.232;8.252;2023-04-01T20:17:23;100912.50;;;3.68;100.00
58243;BME280;50118;53.232;8.252;2023-04-01T20:19:58;100927.16;;;3.87;100.00
58243;BME280;50118;53.232;8.252;2023-04-01T20:25:22;100927.53;;;3.81;100.00
58243;BME280;50118;53.232;8.252;2023-04-01T20:28:00;100938.09;;;3.66;100.00
58243;BME280;50118;53.232;8.252;2023-04-01T20:50:29;100962.34;;;3.28;100.00
58243;BME280;50118;53.232;8.252;2023-04-01T20:53:16;100979.19;;;3.26;100.00
58243;BME280;50118;53.232;8.252;2023-04-01T20:59:09;100989.91;;;3.23;100.00
58243;BME280;50118;53.232;8.252;2023-04-01T21:01:47;100999.13;;;3.15;100.00
58243;BME280;50118;53.232;8.252;2023-04-01T21:04:27;101006.13;;;3.01;100.00
58243;BME280;50118;53.232;8.252;2023-04-01T21:12:56;101023.06;;;3.11;100.00
58243;BME280;50118;53.232;8.252;2023-04-01T21:32:52;101047.66;;;2.95;100.00
58243;BME280;50118;53.232;8.252;2023-04-01T21:43:51;101085.63;;;2.91;100.00
58243;BME280;50118;53.232;8.252;2023-04-01T21:52:21;101095.31;;;2.75;100.00
58243;BME280;50118;53.232;8.252;2023-04-01T21:58:30;101118.63;;;2.65;100.00
58243;BME280;50118;53.232;8.252;2023-04-01T22:03:41;101132.78;;;2.47;100.00
58243;BME280;50118;53.232;8.252;2023-04-01T22:06:22;101130.06;;;2.48;100.00
58243;BME280;50118;53.232;8.252;2023-04-01T22:11:46;101148.91;;;2.40;100.00
58243;BME280;50118;53.232;8.252;2023-04-01T22:14:16;101144.47;;;2.25;100.00
58243;BME280;50118;53.232;8.252;2023-04-01T22:16:53;101147.84;;;2.11;100.00
58243;BME280;50118;53.232;8.252;2023-04-01T22:30:27;101173.75;;;2.01;100.00
58243;BME280;50118;53.232;8.252;2023-04-01T22:43:11;101206.69;;;1.91;100.00
58243;BME280;50118;53.232;8.252;2023-04-01T22:48:46;101229.59;;;1.70;100.00
58243;BME280;50118;53.232;8.252;2023-04-01T22:51:27;101231.31;;;1.54;100.00
58243;BME280;50118;53.232;8.252;2023-04-01T22:56:26;101241.94;;;1.51;100.00
58243;BME280;50118;53.232;8.252;2023-04-01T22:58:59;101238.97;;;1.39;100.00